sensor_id;sensor_type;location;lat;lon;timestamp;temperature;humidity
22069;DHT22;13887;57.196;-2.100;2024-03-08T00:00:13;7.35;83.03
22069;DHT22;13887;57.196;-2.100;2024-03-08T00:02:44;7.37;83.13
22069;DHT22;13887;57.196;-2.100;2024-03-08T00:05:12;7.40;82.91
22069;DHT22;13887;57.196;-2.100;2024-03-08T00:07:41;7.40;82.85
22069;DHT22;13887;57.196;-2.100;2024-03-08T00:10:11;7.38;83.00
22069;DHT22;13887;57.196;-2.100;2024-03-08T00:12:41;7.39;82.87
22069;DHT22;13887;57.196;-2.100;2024-03-08T00:15:10;7.37;82.90
22069;DHT22;13887;57.196;-2.100;2024-03-08T00:17:38;7.33;83.13
22069;DHT22;13887;57.196;-2.100;2024-03-08T00:20:06;7.35;83.16
22069;DHT22;13887;57.196;-2.100;2024-03-08T00:22:36;7.32;83.36
22069;DHT22;13887;57.196;-2.100;2024-03-08T00:25:04;7.35;83.34
22069;DHT22;13887;57.196;-2.100;2024-03-08T00:27:32;7.37;83.26
22069;DHT22;13887;57.196;-2.100;2024-03-08T00:30:00;7.33;83.34
22069;DHT22;13887;57.196;-2.100;2024-03-08T00:32:27;7.34;83.41
22069;DHT22;13887;57.196;-2.100;2024-03-08T00:34:55;7.31;83.32
22069;DHT22;13887;57.196;-2.100;2024-03-08T00:37:22;7.31;83.37
22069;DHT22;13887;57.196;-2.100;2024-03-08T00:39:51;7.27;83.53
22069;DHT22;13887;57.196;-2.100;2024-03-08T00:42:20;7.32;83.29
22069;DHT22;13887;57.196;-2.100;2024-03-08T00:44:47;7.37;83.22
22069;DHT22;13887;57.196;-2.100;2024-03-08T00:47:19;7.37;83.22
22069;DHT22;13887;57.196;-2.100;2024-03-08T00:49:46;7.37;83.37
22069;DHT22;13887;57.196;-2.100;2024-03-08T00:52:14;7.34;83.50
22069;DHT22;13887;57.196;-2.100;2024-03-08T00:54:41;7.33;83.69
22069;DHT22;13887;57.196;-2.100;2024-03-08T00:57:11;7.31;83.81
22069;DHT22;13887;57.196;-2.100;2024-03-08T00:59:39;7.34;83.84
22069;DHT22;13887;57.196;-2.100;2024-03-08T01:02:07;7.33;83.94
22069;DHT22;13887;57.196;-2.100;2024-03-08T01:04:36;7.34;84.16
22069;DHT22;13887;57.196;-2.100;2024-03-08T01:07:03;7.34;84.29
22069;DHT22;13887;57.196;-2.100;2024-03-08T01:09:30;7.33;84.39
22069;DHT22;13887;57.196;-2.100;2024-03-08T01:11:58;7.31;84.61
22069;DHT22;13887;57.196;-2.100;2024-03-08T01:14:26;7.31;84.54
22069;DHT22;13887;57.196;-2.100;2024-03-08T01:16:54;7.31;84.52
22069;DHT22;13887;57.196;-2.100;2024-03-08T01:19:22;7.32;84.52
22069;DHT22;13887;57.196;-2.100;2024-03-08T01:21:49;7.32;84.46
22069;DHT22;13887;57.196;-2.100;2024-03-08T01:24:17;7.32;84.44
22069;DHT22;13887;57.196;-2.100;2024-03-08T01:26:45;7.33;84.49
22069;DHT22;13887;57.196;-2.100;2024-03-08T01:29:12;7.33;84.48
22069;DHT22;13887;57.196;-2.100;2024-03-08T01:31:39;7.34;84.38
22069;DHT22;13887;57.196;-2.100;2024-03-08T01:34:07;7.32;84.48
22069;DHT22;13887;57.196;-2.100;2024-03-08T01:36:34;7.33;84.43
22069;DHT22;13887;57.196;-2.100;2024-03-08T01:39:01;7.33;84.49
22069;DHT22;13887;57.196;-2.100;2024-03-08T01:41:28;7.32;84.54
22069;DHT22;13887;57.196;-2.100;2024-03-08T01:43:57;7.32;84.61
22069;DHT22;13887;57.196;-2.100;2024-03-08T01:46:26;7.30;84.74
22069;DHT22;13887;57.196;-2.100;2024-03-08T01:48:55;7.30;84.77
22069;DHT22;13887;57.196;-2.100;2024-03-08T01:51:23;7.30;84.84
22069;DHT22;13887;57.196;-2.100;2024-03-08T01:53:50;7.30;85.01
22069;DHT22;13887;57.196;-2.100;2024-03-08T01:56:18;7.30;85.05
22069;DHT22;13887;57.196;-2.100;2024-03-08T01:58:46;7.30;85.10
22069;DHT22;13887;57.196;-2.100;2024-03-08T02:01:16;7.28;85.29
22069;DHT22;13887;57.196;-2.100;2024-03-08T02:03:46;7.28;85.34
22069;DHT22;13887;57.196;-2.100;2024-03-08T02:06:14;7.29;85.26
22069;DHT22;13887;57.196;-2.100;2024-03-08T02:08:45;7.29;85.09
22069;DHT22;13887;57.196;-2.100;2024-03-08T02:11:14;7.28;84.91
22069;DHT22;13887;57.196;-2.100;2024-03-08T02:13:41;7.25;84.77
22069;DHT22;13887;57.196;-2.100;2024-03-08T02:16:10;7.22;84.85
22069;DHT22;13887;57.196;-2.100;2024-03-08T02:18:37;7.18;84.78
22069;DHT22;13887;57.196;-2.100;2024-03-08T02:21:07;7.15;84.43
22069;DHT22;13887;57.196;-2.100;2024-03-08T02:23:36;7.23;83.63
22069;DHT22;13887;57.196;-2.100;2024-03-08T02:26:04;7.22;83.46
22069;DHT22;13887;57.196;-2.100;2024-03-08T02:28:32;7.23;83.50
22069;DHT22;13887;57.196;-2.100;2024-03-08T02:31:00;7.23;82.91
22069;DHT22;13887;57.196;-2.100;2024-03-08T02:33:28;7.15;83.15
22069;DHT22;13887;57.196;-2.100;2024-03-08T02:35:56;7.12;82.28
22069;DHT22;13887;57.196;-2.100;2024-03-08T02:38:24;7.14;81.93
22069;DHT22;13887;57.196;-2.100;2024-03-08T02:40:53;7.13;81.44
22069;DHT22;13887;57.196;-2.100;2024-03-08T02:43:22;7.12;81.43
22069;DHT22;13887;57.196;-2.100;2024-03-08T02:45:50;7.04;81.59
22069;DHT22;13887;57.196;-2.100;2024-03-08T02:48:20;7.05;81.30
22069;DHT22;13887;57.196;-2.100;2024-03-08T02:50:52;7.09;81.17
22069;DHT22;13887;57.196;-2.100;2024-03-08T02:53:19;7.10;80.64
22069;DHT22;13887;57.196;-2.100;2024-03-08T02:55:46;7.02;80.59
22069;DHT22;13887;57.196;-2.100;2024-03-08T02:58:14;7.00;80.69
22069;DHT22;13887;57.196;-2.100;2024-03-08T03:00:42;7.02;80.36
22069;DHT22;13887;57.196;-2.100;2024-03-08T03:03:12;7.03;80.36
22069;DHT22;13887;57.196;-2.100;2024-03-08T03:05:39;7.07;79.98
22069;DHT22;13887;57.196;-2.100;2024-03-08T03:08:14;7.00;79.53
22069;DHT22;13887;57.196;-2.100;2024-03-08T03:10:44;6.98;78.90
22069;DHT22;13887;57.196;-2.100;2024-03-08T03:13:13;7.00;79.10
22069;DHT22;13887;57.196;-2.100;2024-03-08T03:15:41;7.07;78.36
22069;DHT22;13887;57.196;-2.100;2024-03-08T03:18:11;7.05;78.19
22069;DHT22;13887;57.196;-2.100;2024-03-08T03:20:39;7.03;78.10
22069;DHT22;13887;57.196;-2.100;2024-03-08T03:23:10;7.05;77.93
22069;DHT22;13887;57.196;-2.100;2024-03-08T03:25:43;7.02;78.35
22069;DHT22;13887;57.196;-2.100;2024-03-08T03:28:10;7.02;78.18
22069;DHT22;13887;57.196;-2.100;2024-03-08T03:30:38;6.97;78.40
22069;DHT22;13887;57.196;-2.100;2024-03-08T03:33:06;6.98;77.95
22069;DHT22;13887;57.196;-2.100;2024-03-08T03:35:35;6.94;77.93
22069;DHT22;13887;57.196;-2.100;2024-03-08T03:38:04;6.94;77.31
22069;DHT22;13887;57.196;-2.100;2024-03-08T03:40:35;6.90;76.85
22069;DHT22;13887;57.196;-2.100;2024-03-08T03:43:03;6.94;76.70
22069;DHT22;13887;57.196;-2.100;2024-03-08T03:45:31;6.90;76.12
22069;DHT22;13887;57.196;-2.100;2024-03-08T03:48:04;6.93;76.13
22069;DHT22;13887;57.196;-2.100;2024-03-08T03:50:34;6.94;75.65
22069;DHT22;13887;57.196;-2.100;2024-03-08T03:53:03;6.98;75.61
22069;DHT22;13887;57.196;-2.100;2024-03-08T03:55:31;6.96;75.51
22069;DHT22;13887;57.196;-2.100;2024-03-08T03:57:59;6.96;75.70
22069;DHT22;13887;57.196;-2.100;2024-03-08T04:00:28;6.91;75.56
22069;DHT22;13887;57.196;-2.100;2024-03-08T04:02:55;6.89;75.92
22069;DHT22;13887;57.196;-2.100;2024-03-08T04:05:26;6.88;76.50
22069;DHT22;13887;57.196;-2.100;2024-03-08T04:07:54;6.89;76.29
22069;DHT22;13887;57.196;-2.100;2024-03-08T04:10:21;6.89;76.26
22069;DHT22;13887;57.196;-2.100;2024-03-08T04:12:48;6.90;75.90
22069;DHT22;13887;57.196;-2.100;2024-03-08T04:15:15;6.89;75.99
22069;DHT22;13887;57.196;-2.100;2024-03-08T04:17:43;6.88;75.84
22069;DHT22;13887;57.196;-2.100;2024-03-08T04:20:13;6.81;75.41
22069;DHT22;13887;57.196;-2.100;2024-03-08T04:22:42;6.80;75.18
22069;DHT22;13887;57.196;-2.100;2024-03-08T04:25:11;6.81;74.64
22069;DHT22;13887;57.196;-2.100;2024-03-08T04:27:38;6.76;74.54
22069;DHT22;13887;57.196;-2.100;2024-03-08T04:30:06;6.80;74.12
22069;DHT22;13887;57.196;-2.100;2024-03-08T04:32:37;6.79;73.95
22069;DHT22;13887;57.196;-2.100;2024-03-08T04:35:05;6.81;73.63
22069;DHT22;13887;57.196;-2.100;2024-03-08T04:37:32;6.79;73.75
22069;DHT22;13887;57.196;-2.100;2024-03-08T04:39:59;6.73;74.02
22069;DHT22;13887;57.196;-2.100;2024-03-08T04:42:28;6.70;73.93
22069;DHT22;13887;57.196;-2.100;2024-03-08T04:44:57;6.68;73.92
22069;DHT22;13887;57.196;-2.100;2024-03-08T04:47:25;6.69;73.72
22069;DHT22;13887;57.196;-2.100;2024-03-08T04:49:52;6.68;73.12
22069;DHT22;13887;57.196;-2.100;2024-03-08T04:52:20;6.68;72.81
22069;DHT22;13887;57.196;-2.100;2024-03-08T04:54:49;6.75;72.56
22069;DHT22;13887;57.196;-2.100;2024-03-08T04:57:16;6.75;72.68
22069;DHT22;13887;57.196;-2.100;2024-03-08T04:59:46;6.67;73.55
22069;DHT22;13887;57.196;-2.100;2024-03-08T05:02:13;6.69;72.86
22069;DHT22;13887;57.196;-2.100;2024-03-08T05:04:41;6.68;73.13
22069;DHT22;13887;57.196;-2.100;2024-03-08T05:07:10;6.66;73.03
22069;DHT22;13887;57.196;-2.100;2024-03-08T05:09:37;6.68;73.24
22069;DHT22;13887;57.196;-2.100;2024-03-08T05:12:05;6.71;72.64
22069;DHT22;13887;57.196;-2.100;2024-03-08T05:14:33;6.74;73.35
22069;DHT22;13887;57.196;-2.100;2024-03-08T05:17:02;6.72;73.06
22069;DHT22;13887;57.196;-2.100;2024-03-08T05:19:29;6.73;73.03
22069;DHT22;13887;57.196;-2.100;2024-03-08T05:22:01;6.69;73.26
22069;DHT22;13887;57.196;-2.100;2024-03-08T05:24:28;6.66;73.34
22069;DHT22;13887;57.196;-2.100;2024-03-08T05:26:57;6.69;72.93
22069;DHT22;13887;57.196;-2.100;2024-03-08T05:29:26;6.68;73.41
22069;DHT22;13887;57.196;-2.100;2024-03-08T05:31:54;6.68;73.38
22069;DHT22;13887;57.196;-2.100;2024-03-08T05:34:21;6.67;73.25
22069;DHT22;13887;57.196;-2.100;2024-03-08T05:36:49;6.60;73.85
22069;DHT22;13887;57.196;-2.100;2024-03-08T05:39:18;6.57;73.38
22069;DHT22;13887;57.196;-2.100;2024-03-08T05:41:47;6.57;72.85
22069;DHT22;13887;57.196;-2.100;2024-03-08T05:44:15;6.57;72.96
22069;DHT22;13887;57.196;-2.100;2024-03-08T05:46:44;6.53;73.61
22069;DHT22;13887;57.196;-2.100;2024-03-08T05:49:12;6.57;73.38
22069;DHT22;13887;57.196;-2.100;2024-03-08T05:51:40;6.63;72.83
22069;DHT22;13887;57.196;-2.100;2024-03-08T05:54:10;6.53;73.56
22069;DHT22;13887;57.196;-2.100;2024-03-08T05:56:41;6.55;73.45
22069;DHT22;13887;57.196;-2.100;2024-03-08T05:59:10;6.54;73.38
22069;DHT22;13887;57.196;-2.100;2024-03-08T06:01:38;6.58;73.31
22069;DHT22;13887;57.196;-2.100;2024-03-08T06:04:08;6.60;73.44
22069;DHT22;13887;57.196;-2.100;2024-03-08T06:06:38;6.58;73.40
22069;DHT22;13887;57.196;-2.100;2024-03-08T06:09:08;6.61;73.39
22069;DHT22;13887;57.196;-2.100;2024-03-08T06:11:39;6.59;73.75
22069;DHT22;13887;57.196;-2.100;2024-03-08T06:14:07;6.58;73.80
22069;DHT22;13887;57.196;-2.100;2024-03-08T06:16:34;6.59;73.96
22069;DHT22;13887;57.196;-2.100;2024-03-08T06:19:03;6.61;73.57
22069;DHT22;13887;57.196;-2.100;2024-03-08T06:21:30;6.60;73.72
22069;DHT22;13887;57.196;-2.100;2024-03-08T06:23:58;6.61;73.83
22069;DHT22;13887;57.196;-2.100;2024-03-08T06:26:25;6.60;73.99
22069;DHT22;13887;57.196;-2.100;2024-03-08T06:28:57;6.59;74.16
22069;DHT22;13887;57.196;-2.100;2024-03-08T06:31:25;6.58;74.44
22069;DHT22;13887;57.196;-2.100;2024-03-08T06:33:52;6.56;74.64
22069;DHT22;13887;57.196;-2.100;2024-03-08T06:36:23;6.58;74.52
22069;DHT22;13887;57.196;-2.100;2024-03-08T06:38:51;6.55;74.65
22069;DHT22;13887;57.196;-2.100;2024-03-08T06:41:19;6.50;74.34
22069;DHT22;13887;57.196;-2.100;2024-03-08T06:43:47;6.52;74.05
22069;DHT22;13887;57.196;-2.100;2024-03-08T06:46:15;6.50;74.06
22069;DHT22;13887;57.196;-2.100;2024-03-08T06:48:43;6.44;73.52
22069;DHT22;13887;57.196;-2.100;2024-03-08T06:51:10;6.48;73.25
22069;DHT22;13887;57.196;-2.100;2024-03-08T06:53:38;6.51;73.36
22069;DHT22;13887;57.196;-2.100;2024-03-08T06:56:06;6.48;73.67
22069;DHT22;13887;57.196;-2.100;2024-03-08T06:58:35;6.44;73.90
22069;DHT22;13887;57.196;-2.100;2024-03-08T07:01:02;6.49;73.75
22069;DHT22;13887;57.196;-2.100;2024-03-08T07:03:31;6.49;74.01
22069;DHT22;13887;57.196;-2.100;2024-03-08T07:06:00;6.44;73.66
22069;DHT22;13887;57.196;-2.100;2024-03-08T07:08:30;6.46;73.59
22069;DHT22;13887;57.196;-2.100;2024-03-08T07:10:58;6.43;73.85
22069;DHT22;13887;57.196;-2.100;2024-03-08T07:13:26;6.43;73.74
22069;DHT22;13887;57.196;-2.100;2024-03-08T07:15:56;6.43;73.64
22069;DHT22;13887;57.196;-2.100;2024-03-08T07:18:23;6.41;73.63
22069;DHT22;13887;57.196;-2.100;2024-03-08T07:20:51;6.43;73.43
22069;DHT22;13887;57.196;-2.100;2024-03-08T07:23:18;6.42;73.45
22069;DHT22;13887;57.196;-2.100;2024-03-08T07:26:04;6.41;73.51
22069;DHT22;13887;57.196;-2.100;2024-03-08T07:28:31;6.42;72.93
22069;DHT22;13887;57.196;-2.100;2024-03-08T07:30:59;6.42;73.07
22069;DHT22;13887;57.196;-2.100;2024-03-08T07:33:44;6.49;72.61
22069;DHT22;13887;57.196;-2.100;2024-03-08T07:36:12;6.50;72.94
22069;DHT22;13887;57.196;-2.100;2024-03-08T07:38:39;6.51;72.74
22069;DHT22;13887;57.196;-2.100;2024-03-08T07:41:06;6.51;72.74
22069;DHT22;13887;57.196;-2.100;2024-03-08T07:43:33;6.49;72.97
22069;DHT22;13887;57.196;-2.100;2024-03-08T07:46:01;6.52;73.12
22069;DHT22;13887;57.196;-2.100;2024-03-08T07:48:28;6.50;73.44
22069;DHT22;13887;57.196;-2.100;2024-03-08T07:50:55;6.48;73.73
22069;DHT22;13887;57.196;-2.100;2024-03-08T07:53:23;6.43;73.88
22069;DHT22;13887;57.196;-2.100;2024-03-08T07:55:53;6.45;73.51
22069;DHT22;13887;57.196;-2.100;2024-03-08T07:58:21;6.43;73.35
22069;DHT22;13887;57.196;-2.100;2024-03-08T08:00:48;6.42;73.48
22069;DHT22;13887;57.196;-2.100;2024-03-08T08:03:15;6.45;73.19
22069;DHT22;13887;57.196;-2.100;2024-03-08T08:05:45;6.40;73.73
22069;DHT22;13887;57.196;-2.100;2024-03-08T08:08:13;6.41;73.62
22069;DHT22;13887;57.196;-2.100;2024-03-08T08:10:40;6.42;73.31
22069;DHT22;13887;57.196;-2.100;2024-03-08T08:13:07;6.48;73.48
22069;DHT22;13887;57.196;-2.100;2024-03-08T08:15:35;6.26;72.88
22069;DHT22;13887;57.196;-2.100;2024-03-08T08:18:02;6.31;73.07
22069;DHT22;13887;57.196;-2.100;2024-03-08T08:20:33;6.36;73.00
22069;DHT22;13887;57.196;-2.100;2024-03-08T08:23:01;6.40;73.38
22069;DHT22;13887;57.196;-2.100;2024-03-08T08:25:28;6.39;73.18
22069;DHT22;13887;57.196;-2.100;2024-03-08T08:27:55;6.42;73.37
22069;DHT22;13887;57.196;-2.100;2024-03-08T08:30:22;6.45;73.15
22069;DHT22;13887;57.196;-2.100;2024-03-08T08:32:49;6.44;73.44
22069;DHT22;13887;57.196;-2.100;2024-03-08T08:35:17;6.42;73.48
22069;DHT22;13887;57.196;-2.100;2024-03-08T08:37:46;6.40;73.58
22069;DHT22;13887;57.196;-2.100;2024-03-08T08:40:14;6.40;73.52
22069;DHT22;13887;57.196;-2.100;2024-03-08T08:42:42;6.40;74.02
22069;DHT22;13887;57.196;-2.100;2024-03-08T08:45:10;6.39;73.96
22069;DHT22;13887;57.196;-2.100;2024-03-08T08:47:44;6.38;73.28
22069;DHT22;13887;57.196;-2.100;2024-03-08T08:50:12;6.38;72.96
22069;DHT22;13887;57.196;-2.100;2024-03-08T08:52:40;6.39;73.32
22069;DHT22;13887;57.196;-2.100;2024-03-08T08:55:08;6.38;73.41
22069;DHT22;13887;57.196;-2.100;2024-03-08T08:57:36;6.38;73.90
22069;DHT22;13887;57.196;-2.100;2024-03-08T09:00:03;6.31;74.19
22069;DHT22;13887;57.196;-2.100;2024-03-08T09:02:34;6.33;73.87
22069;DHT22;13887;57.196;-2.100;2024-03-08T09:05:02;6.38;73.86
22069;DHT22;13887;57.196;-2.100;2024-03-08T09:07:30;6.37;74.03
22069;DHT22;13887;57.196;-2.100;2024-03-08T09:09:57;6.38;74.47
22069;DHT22;13887;57.196;-2.100;2024-03-08T09:12:26;6.35;74.41
22069;DHT22;13887;57.196;-2.100;2024-03-08T09:14:53;6.42;74.12
22069;DHT22;13887;57.196;-2.100;2024-03-08T09:17:21;6.43;74.23
22069;DHT22;13887;57.196;-2.100;2024-03-08T09:19:49;6.44;74.25
22069;DHT22;13887;57.196;-2.100;2024-03-08T09:22:17;6.44;74.17
22069;DHT22;13887;57.196;-2.100;2024-03-08T09:24:45;6.42;74.42
22069;DHT22;13887;57.196;-2.100;2024-03-08T09:27:12;6.40;74.22
22069;DHT22;13887;57.196;-2.100;2024-03-08T09:29:40;6.41;73.75
22069;DHT22;13887;57.196;-2.100;2024-03-08T09:32:08;6.42;73.70
22069;DHT22;13887;57.196;-2.100;2024-03-08T09:34:35;6.42;73.56
22069;DHT22;13887;57.196;-2.100;2024-03-08T09:37:04;6.43;73.79
22069;DHT22;13887;57.196;-2.100;2024-03-08T09:39:32;6.43;73.47
22069;DHT22;13887;57.196;-2.100;2024-03-08T09:42:01;6.43;73.71
22069;DHT22;13887;57.196;-2.100;2024-03-08T09:44:28;6.44;73.77
22069;DHT22;13887;57.196;-2.100;2024-03-08T09:46:56;6.45;73.64
22069;DHT22;13887;57.196;-2.100;2024-03-08T09:49:25;6.46;73.68
22069;DHT22;13887;57.196;-2.100;2024-03-08T09:51:52;6.45;73.86
22069;DHT22;13887;57.196;-2.100;2024-03-08T09:54:20;6.45;73.92
22069;DHT22;13887;57.196;-2.100;2024-03-08T09:56:51;6.48;74.06
22069;DHT22;13887;57.196;-2.100;2024-03-08T09:59:19;6.49;74.18
22069;DHT22;13887;57.196;-2.100;2024-03-08T10:01:55;6.50;74.30
22069;DHT22;13887;57.196;-2.100;2024-03-08T10:04:27;6.50;74.33
22069;DHT22;13887;57.196;-2.100;2024-03-08T10:06:55;6.51;74.29
22069;DHT22;13887;57.196;-2.100;2024-03-08T10:09:24;6.49;74.36
22069;DHT22;13887;57.196;-2.100;2024-03-08T10:11:56;6.50;74.55
22069;DHT22;13887;57.196;-2.100;2024-03-08T10:14:27;6.51;74.77
22069;DHT22;13887;57.196;-2.100;2024-03-08T10:16:55;6.52;74.98
22069;DHT22;13887;57.196;-2.100;2024-03-08T10:19:27;6.54;74.98
22069;DHT22;13887;57.196;-2.100;2024-03-08T10:21:57;6.51;75.28
22069;DHT22;13887;57.196;-2.100;2024-03-08T10:24:26;6.51;75.44
22069;DHT22;13887;57.196;-2.100;2024-03-08T10:26:58;6.51;75.71
22069;DHT22;13887;57.196;-2.100;2024-03-08T10:29:25;6.51;75.89
22069;DHT22;13887;57.196;-2.100;2024-03-08T10:31:52;6.50;75.96
22069;DHT22;13887;57.196;-2.100;2024-03-08T10:34:19;6.50;76.15
22069;DHT22;13887;57.196;-2.100;2024-03-08T10:36:49;6.48;76.32
22069;DHT22;13887;57.196;-2.100;2024-03-08T10:39:24;6.51;76.37
22069;DHT22;13887;57.196;-2.100;2024-03-08T10:41:58;6.53;76.76
22069;DHT22;13887;57.196;-2.100;2024-03-08T10:44:58;6.54;76.78
22069;DHT22;13887;57.196;-2.100;2024-03-08T10:47:30;6.56;76.86
22069;DHT22;13887;57.196;-2.100;2024-03-08T10:52:31;6.57;77.09
22069;DHT22;13887;57.196;-2.100;2024-03-08T10:54:59;6.57;77.18
22069;DHT22;13887;57.196;-2.100;2024-03-08T10:57:27;6.58;77.27
22069;DHT22;13887;57.196;-2.100;2024-03-08T10:59:55;6.58;77.34
22069;DHT22;13887;57.196;-2.100;2024-03-08T11:02:25;6.56;77.47
22069;DHT22;13887;57.196;-2.100;2024-03-08T11:04:54;6.56;77.60
22069;DHT22;13887;57.196;-2.100;2024-03-08T11:07:24;6.58;77.09
22069;DHT22;13887;57.196;-2.100;2024-03-08T11:09:55;6.57;77.33
22069;DHT22;13887;57.196;-2.100;2024-03-08T11:12:27;6.56;77.24
22069;DHT22;13887;57.196;-2.100;2024-03-08T11:15:00;6.55;77.38
22069;DHT22;13887;57.196;-2.100;2024-03-08T11:19:59;6.54;77.65
22069;DHT22;13887;57.196;-2.100;2024-03-08T11:22:31;6.51;77.79
22069;DHT22;13887;57.196;-2.100;2024-03-08T11:25:02;6.52;77.76
22069;DHT22;13887;57.196;-2.100;2024-03-08T11:27:30;6.57;77.72
22069;DHT22;13887;57.196;-2.100;2024-03-08T11:30:03;6.56;77.89
22069;DHT22;13887;57.196;-2.100;2024-03-08T11:33:00;6.54;78.65
22069;DHT22;13887;57.196;-2.100;2024-03-08T11:35:30;6.59;78.77
22069;DHT22;13887;57.196;-2.100;2024-03-08T11:38:00;6.60;79.17
22069;DHT22;13887;57.196;-2.100;2024-03-08T11:40:28;6.59;79.62
22069;DHT22;13887;57.196;-2.100;2024-03-08T11:42:56;6.61;79.60
22069;DHT22;13887;57.196;-2.100;2024-03-08T11:45:23;6.66;79.61
22069;DHT22;13887;57.196;-2.100;2024-03-08T11:47:50;6.66;79.87
22069;DHT22;13887;57.196;-2.100;2024-03-08T11:50:21;6.67;79.86
22069;DHT22;13887;57.196;-2.100;2024-03-08T11:52:50;6.69;80.04
22069;DHT22;13887;57.196;-2.100;2024-03-08T11:55:18;6.73;79.80
22069;DHT22;13887;57.196;-2.100;2024-03-08T11:57:47;6.72;79.96
22069;DHT22;13887;57.196;-2.100;2024-03-08T12:00:16;6.71;80.21
22069;DHT22;13887;57.196;-2.100;2024-03-08T12:03:03;6.72;80.37
22069;DHT22;13887;57.196;-2.100;2024-03-08T12:05:31;6.69;80.60
22069;DHT22;13887;57.196;-2.100;2024-03-08T12:08:00;6.65;80.93
22069;DHT22;13887;57.196;-2.100;2024-03-08T12:10:29;6.64;80.85
22069;DHT22;13887;57.196;-2.100;2024-03-08T12:12:59;6.65;80.74
22069;DHT22;13887;57.196;-2.100;2024-03-08T12:15:28;6.67;80.68
22069;DHT22;13887;57.196;-2.100;2024-03-08T12:17:56;6.68;80.80
22069;DHT22;13887;57.196;-2.100;2024-03-08T12:20:26;6.68;80.89
22069;DHT22;13887;57.196;-2.100;2024-03-08T12:22:53;6.66;80.98
22069;DHT22;13887;57.196;-2.100;2024-03-08T12:25:30;6.67;81.08
22069;DHT22;13887;57.196;-2.100;2024-03-08T12:28:10;6.66;81.19
22069;DHT22;13887;57.196;-2.100;2024-03-08T12:30:51;6.69;81.12
22069;DHT22;13887;57.196;-2.100;2024-03-08T12:33:20;6.69;81.32
22069;DHT22;13887;57.196;-2.100;2024-03-08T12:35:51;6.68;81.38
22069;DHT22;13887;57.196;-2.100;2024-03-08T12:38:22;6.72;81.13
22069;DHT22;13887;57.196;-2.100;2024-03-08T12:40:58;6.72;81.00
22069;DHT22;13887;57.196;-2.100;2024-03-08T12:43:26;6.76;80.94
22069;DHT22;13887;57.196;-2.100;2024-03-08T12:45:58;6.76;80.76
22069;DHT22;13887;57.196;-2.100;2024-03-08T12:48:26;6.75;80.81
22069;DHT22;13887;57.196;-2.100;2024-03-08T12:50:53;6.73;80.69
22069;DHT22;13887;57.196;-2.100;2024-03-08T12:53:20;6.72;80.58
22069;DHT22;13887;57.196;-2.100;2024-03-08T12:55:50;6.73;80.75
22069;DHT22;13887;57.196;-2.100;2024-03-08T12:58:18;6.72;80.57
22069;DHT22;13887;57.196;-2.100;2024-03-08T13:00:47;6.72;80.49
22069;DHT22;13887;57.196;-2.100;2024-03-08T13:03:20;6.73;80.35
22069;DHT22;13887;57.196;-2.100;2024-03-08T13:05:48;6.73;80.17
22069;DHT22;13887;57.196;-2.100;2024-03-08T13:08:16;6.72;80.14
22069;DHT22;13887;57.196;-2.100;2024-03-08T13:10:45;6.75;79.88
22069;DHT22;13887;57.196;-2.100;2024-03-08T13:13:12;6.78;79.76
22069;DHT22;13887;57.196;-2.100;2024-03-08T13:15:44;6.79;79.55
22069;DHT22;13887;57.196;-2.100;2024-03-08T13:18:12;6.80;79.19
22069;DHT22;13887;57.196;-2.100;2024-03-08T13:20:39;6.79;79.07
22069;DHT22;13887;57.196;-2.100;2024-03-08T13:23:14;6.81;78.92
22069;DHT22;13887;57.196;-2.100;2024-03-08T13:25:41;6.81;78.29
22069;DHT22;13887;57.196;-2.100;2024-03-08T13:28:09;6.80;78.30
22069;DHT22;13887;57.196;-2.100;2024-03-08T13:30:38;6.83;77.80
22069;DHT22;13887;57.196;-2.100;2024-03-08T13:33:05;6.78;77.68
22069;DHT22;13887;57.196;-2.100;2024-03-08T13:35:34;6.82;77.49
22069;DHT22;13887;57.196;-2.100;2024-03-08T13:38:02;6.84;77.42
22069;DHT22;13887;57.196;-2.100;2024-03-08T13:40:34;6.85;77.23
22069;DHT22;13887;57.196;-2.100;2024-03-08T13:43:02;6.87;77.44
22069;DHT22;13887;57.196;-2.100;2024-03-08T13:45:30;6.88;77.63
22069;DHT22;13887;57.196;-2.100;2024-03-08T13:47:58;6.89;77.77
22069;DHT22;13887;57.196;-2.100;2024-03-08T13:50:26;6.89;77.93
22069;DHT22;13887;57.196;-2.100;2024-03-08T13:52:53;6.89;78.07
22069;DHT22;13887;57.196;-2.100;2024-03-08T13:55:23;6.93;78.19
22069;DHT22;13887;57.196;-2.100;2024-03-08T13:57:53;6.88;78.67
22069;DHT22;13887;57.196;-2.100;2024-03-08T14:00:20;6.87;78.99
22069;DHT22;13887;57.196;-2.100;2024-03-08T14:02:54;6.88;79.24
22069;DHT22;13887;57.196;-2.100;2024-03-08T14:05:21;6.89;79.18
22069;DHT22;13887;57.196;-2.100;2024-03-08T14:07:49;6.88;79.27
22069;DHT22;13887;57.196;-2.100;2024-03-08T14:10:17;6.87;79.30
22069;DHT22;13887;57.196;-2.100;2024-03-08T14:12:50;6.89;79.63
22069;DHT22;13887;57.196;-2.100;2024-03-08T14:15:18;6.87;79.72
22069;DHT22;13887;57.196;-2.100;2024-03-08T14:17:45;6.87;79.69
22069;DHT22;13887;57.196;-2.100;2024-03-08T14:20:19;6.87;79.89
22069;DHT22;13887;57.196;-2.100;2024-03-08T14:22:46;6.89;79.94
22069;DHT22;13887;57.196;-2.100;2024-03-08T14:25:13;6.91;80.01
22069;DHT22;13887;57.196;-2.100;2024-03-08T14:27:46;6.93;80.22
22069;DHT22;13887;57.196;-2.100;2024-03-08T14:30:13;6.91;80.33
22069;DHT22;13887;57.196;-2.100;2024-03-08T14:32:55;6.89;80.33
22069;DHT22;13887;57.196;-2.100;2024-03-08T14:35:22;6.87;80.26
22069;DHT22;13887;57.196;-2.100;2024-03-08T14:37:52;6.89;79.92
22069;DHT22;13887;57.196;-2.100;2024-03-08T14:40:19;6.89;79.62
22069;DHT22;13887;57.196;-2.100;2024-03-08T14:42:49;6.93;79.24
22069;DHT22;13887;57.196;-2.100;2024-03-08T14:45:17;6.93;79.35
22069;DHT22;13887;57.196;-2.100;2024-03-08T14:47:47;6.94;78.71
22069;DHT22;13887;57.196;-2.100;2024-03-08T14:50:19;6.96;78.26
22069;DHT22;13887;57.196;-2.100;2024-03-08T14:52:46;6.94;78.31
22069;DHT22;13887;57.196;-2.100;2024-03-08T14:55:18;6.95;77.73
22069;DHT22;13887;57.196;-2.100;2024-03-08T14:57:49;6.91;76.95
22069;DHT22;13887;57.196;-2.100;2024-03-08T15:00:19;6.91;76.52
22069;DHT22;13887;57.196;-2.100;2024-03-08T15:03:03;6.91;76.18
22069;DHT22;13887;57.196;-2.100;2024-03-08T15:05:35;6.88;75.96
22069;DHT22;13887;57.196;-2.100;2024-03-08T15:08:07;6.90;75.74
22069;DHT22;13887;57.196;-2.100;2024-03-08T15:10:38;6.90;75.70
22069;DHT22;13887;57.196;-2.100;2024-03-08T15:13:08;6.89;75.24
22069;DHT22;13887;57.196;-2.100;2024-03-08T15:15:43;6.87;74.86
22069;DHT22;13887;57.196;-2.100;2024-03-08T15:18:11;6.85;74.54
22069;DHT22;13887;57.196;-2.100;2024-03-08T15:20:39;6.84;74.95
22069;DHT22;13887;57.196;-2.100;2024-03-08T15:23:06;6.87;75.46
22069;DHT22;13887;57.196;-2.100;2024-03-08T15:25:37;6.87;75.89
22069;DHT22;13887;57.196;-2.100;2024-03-08T15:28:06;6.88;76.12
22069;DHT22;13887;57.196;-2.100;2024-03-08T15:30:40;6.85;75.96
22069;DHT22;13887;57.196;-2.100;2024-03-08T15:33:13;6.83;75.75
22069;DHT22;13887;57.196;-2.100;2024-03-08T15:35:42;6.85;75.89
22069;DHT22;13887;57.196;-2.100;2024-03-08T15:38:14;6.81;76.13
22069;DHT22;13887;57.196;-2.100;2024-03-08T15:40:42;6.79;76.12
22069;DHT22;13887;57.196;-2.100;2024-03-08T15:43:09;6.79;76.42
22069;DHT22;13887;57.196;-2.100;2024-03-08T15:45:36;6.80;76.52